Time;durP1;ratioP1;P1;durP2;ratioP2;P2;SDS_P1;SDS_P2;PMS_P1;PMS_P2;Temp;Humidity;BMP_temperature;BMP_pressure;BME280_temperature;BME280_humidity;BME280_pressure;Samples;Min_cycle;Max_cycle;Signal;HPM_P1;HPM_P2
2023/08/14 00:00:59;;;;;;;8.35;3.88;;;15.90;99.90;;;;;;5069594;28;20096;-76
2023/08/14 00:03:46;;;;;;;7.05;3.38;;;15.90;99.90;;;;;;5038836;28;20052;-76
2023/08/14 00:06:32;;;;;;;8.23;4.22;;;15.80;99.90;;;;;;5050972;28;20063;-76
2023/08/14 00:09:18;;;;;;;10.90;4.30;;;15.80;99.90;;;;;;5051392;28;20401;-76
2023/08/14 00:12:05;;;;;;;10.65;4.50;;;15.70;99.90;;;;;;5069691;28;20056;-76
2023/08/14 00:14:51;;;;;;;6.95;3.80;;;15.80;99.90;;;;;;5068882;28;20045;-76
2023/08/14 00:17:37;;;;;;;7.55;4.38;;;15.70;99.90;;;;;;5070022;28;20058;-75
2023/08/14 00:20:23;;;;;;;9.57;5.22;;;15.70;99.90;;;;;;5055839;28;20044;-75
2023/08/14 00:23:09;;;;;;;9.60;4.78;;;15.60;99.90;;;;;;5070364;28;20044;-75
2023/08/14 00:25:55;;;;;;;10.15;4.25;;;15.60;99.90;;;;;;5069799;28;20059;-76
2023/08/14 00:28:41;;;;;;;14.27;4.63;;;15.50;99.90;;;;;;5038405;28;20071;-76
2023/08/14 00:31:27;;;;;;;7.45;4.05;;;15.50;99.90;;;;;;5038338;28;20416;-77
2023/08/14 00:34:13;;;;;;;9.27;4.95;;;15.40;99.90;;;;;;5069944;28;20439;-76
2023/08/14 00:36:59;;;;;;;8.82;4.63;;;15.40;99.90;;;;;;5074197;28;20091;-76
2023/08/14 00:39:45;;;;;;;8.52;4.53;;;15.40;99.90;;;;;;5073512;28;20041;-76
2023/08/14 00:42:31;;;;;;;10.10;4.88;;;15.40;99.90;;;;;;5072949;28;20057;-76
2023/08/14 00:45:18;;;;;;;6.55;4.10;;;15.40;99.90;;;;;;5072898;28;20048;-77
2023/08/14 00:48:05;;;;;;;7.07;3.85;;;15.30;99.90;;;;;;5072307;28;20515;-76
2023/08/14 00:50:53;;;;;;;9.80;4.80;;;15.30;99.90;;;;;;5054484;28;20144;-77
2023/08/14 00:53:39;;;;;;;8.25;5.30;;;15.30;99.90;;;;;;5058429;28;20051;-76
2023/08/14 00:56:28;;;;;;;9.88;5.05;;;15.30;99.90;;;;;;5072226;28;20135;-77
2023/08/14 00:59:14;;;;;;;8.18;5.00;;;15.30;99.90;;;;;;5073282;28;20143;-77
2023/08/14 01:02:00;;;;;;;10.15;4.45;;;15.30;99.90;;;;;;5073524;28;20067;-77
2023/08/14 01:04:46;;;;;;;8.38;4.00;;;15.40;99.90;;;;;;5073529;28;20049;-77
2023/08/14 01:07:32;;;;;;;8.73;4.18;;;15.40;99.90;;;;;;5073425;28;20088;-77
2023/08/14 01:10:19;;;;;;;9.13;4.90;;;15.40;99.90;;;;;;5040994;28;20139;-76
2023/08/14 01:13:18;;;;;;;7.22;3.92;;;15.40;99.90;;;;;;5072213;28;20052;-77
2023/08/14 01:16:10;;;;;;;7.75;4.13;;;15.40;99.90;;;;;;5073207;28;20147;-76
2023/08/14 01:18:59;;;;;;;12.63;4.82;;;15.50;99.90;;;;;;5072755;28;20044;-77
2023/08/14 01:21:58;;;;;;;9.13;4.38;;;15.50;99.90;;;;;;5073158;28;20068;-77
2023/08/14 01:24:55;;;;;;;7.78;4.72;;;15.50;99.90;;;;;;5073132;28;20484;-76
2023/08/14 01:27:41;;;;;;;7.35;4.32;;;15.50;99.90;;;;;;5054945;28;20057;-77
2023/08/14 01:30:27;;;;;;;8.63;4.32;;;15.50;99.90;;;;;;5071375;28;20496;-76
2023/08/14 01:33:13;;;;;;;8.60;4.28;;;15.50;99.90;;;;;;5072134;28;20055;-76
2023/08/14 01:36:10;;;;;;;8.73;4.30;;;15.50;99.90;;;;;;5072851;28;20237;-78
2023/08/14 01:39:04;;;;;;;9.55;4.72;;;15.50;99.90;;;;;;5071611;28;20054;-77
2023/08/14 01:42:15;;;;;;;9.50;4.43;;;15.50;99.90;;;;;;5072286;28;20502;-77
2023/08/14 01:45:07;;;;;;;8.48;4.25;;;15.40;99.90;;;;;;5072601;28;20309;-77
2023/08/14 01:47:55;;;;;;;5.95;4.25;;;15.40;99.90;;;;;;5071747;28;20041;-77
2023/08/14 01:50:42;;;;;;;8.30;4.07;;;15.40;99.90;;;;;;5072179;28;20440;-77
2023/08/14 01:53:28;;;;;;;9.20;4.80;;;15.40;99.90;;;;;;5071537;28;20117;-77
2023/08/14 01:56:14;;;;;;;9.73;4.15;;;15.40;99.90;;;;;;5054046;28;20125;-77
2023/08/14 01:59:01;;;;;;;8.05;4.68;;;15.40;99.90;;;;;;5072405;28;20079;-77
2023/08/14 02:01:47;;;;;;;12.35;5.63;;;15.40;99.90;;;;;;5070912;28;20500;-77
2023/08/14 02:04:33;;;;;;;7.90;4.32;;;15.40;99.90;;;;;;5071961;28;20084;-77
2023/08/14 02:07:19;;;;;;;8.43;4.90;;;15.40;99.90;;;;;;5057272;28;20057;-76
2023/08/14 02:10:05;;;;;;;8.38;4.30;;;15.40;99.90;;;;;;5053099;28;20103;-77
2023/08/14 02:12:51;;;;;;;11.63;4.55;;;15.40;99.90;;;;;;5072067;28;20088;-77
2023/08/14 02:15:37;;;;;;;7.35;4.07;;;15.40;99.90;;;;;;5071083;28;20102;-77
2023/08/14 02:18:23;;;;;;;7.47;3.88;;;15.40;99.90;;;;;;5053929;28;20052;-78
2023/08/14 02:21:09;;;;;;;12.30;4.50;;;15.40;99.90;;;;;;5070597;28;20107;-76
2023/08/14 02:23:55;;;;;;;9.77;4.63;;;15.40;99.90;;;;;;5056336;28;20060;-76
2023/08/14 02:26:42;;;;;;;7.72;4.50;;;15.40;99.90;;;;;;5053292;28;20052;-76
2023/08/14 02:29:28;;;;;;;8.43;4.85;;;15.40;99.90;;;;;;5052452;28;20052;-76
2023/08/14 02:32:14;;;;;;;8.80;4.88;;;15.40;99.90;;;;;;5071668;28;20136;-77
2023/08/14 02:35:00;;;;;;;8.48;4.40;;;15.50;99.90;;;;;;5055775;28;20055;-77
2023/08/14 02:37:46;;;;;;;8.80;3.78;;;15.50;99.90;;;;;;5069973;28;20508;-76
2023/08/14 02:40:32;;;;;;;9.15;4.00;;;15.50;99.90;;;;;;5052028;28;20060;-77
2023/08/14 02:43:18;;;;;;;14.73;4.95;;;15.50;99.90;;;;;;5052814;28;20056;-77
2023/08/14 02:46:04;;;;;;;9.18;4.45;;;15.50;99.90;;;;;;5070114;28;20057;-76
2023/08/14 02:48:50;;;;;;;9.05;4.30;;;15.50;99.90;;;;;;5053493;28;20520;-76
2023/08/14 02:51:36;;;;;;;8.07;3.63;;;15.50;99.90;;;;;;5052857;28;20488;-77
2023/08/14 02:54:22;;;;;;;8.45;4.45;;;15.50;99.90;;;;;;5070026;28;20092;-77
2023/08/14 02:57:08;;;;;;;10.65;4.72;;;15.50;99.90;;;;;;5052906;28;20138;-76
2023/08/14 02:59:54;;;;;;;7.43;4.80;;;15.50;99.90;;;;;;5038543;28;20040;-76
2023/08/14 03:02:40;;;;;;;11.02;4.70;;;15.50;99.90;;;;;;5070702;28;20075;-77
2023/08/14 03:05:26;;;;;;;9.40;4.53;;;15.50;99.90;;;;;;5062479;28;20063;-76
2023/08/14 03:08:12;;;;;;;11.43;4.47;;;15.50;99.90;;;;;;5053738;28;20062;-77
2023/08/14 03:10:59;;;;;;;8.80;4.65;;;15.50;99.90;;;;;;5070255;28;20055;-78
2023/08/14 03:13:45;;;;;;;10.13;4.50;;;15.40;99.90;;;;;;5053081;28;20052;-77
2023/08/14 03:16:31;;;;;;;10.32;5.07;;;15.40;99.90;;;;;;5038120;28;20416;-77
2023/08/14 03:19:17;;;;;;;11.73;6.18;;;15.40;99.90;;;;;;5053610;28;20123;-77
2023/08/14 03:22:03;;;;;;;10.13;5.68;;;15.40;99.90;;;;;;5070625;28;20507;-77
2023/08/14 03:24:49;;;;;;;9.45;4.90;;;15.30;99.90;;;;;;5069744;28;20259;-76
2023/08/14 03:27:36;;;;;;;10.85;5.32;;;15.30;99.90;;;;;;5052146;28;20052;-77
2023/08/14 03:30:22;;;;;;;8.45;5.60;;;15.20;99.90;;;;;;5055843;28;20567;-77
2023/08/14 03:33:08;;;;;;;10.27;5.65;;;15.20;99.90;;;;;;5051545;28;20080;-78
2023/08/14 03:35:55;;;;;;;11.82;5.45;;;15.10;99.90;;;;;;5051933;28;20105;-76
2023/08/14 03:38:41;;;;;;;10.63;5.75;;;15.20;99.90;;;;;;5070805;28;20053;-78
2023/08/14 03:41:27;;;;;;;10.60;5.03;;;15.10;99.90;;;;;;5070400;28;20082;-77
2023/08/14 03:44:13;;;;;;;10.82;5.20;;;15.10;99.90;;;;;;5070278;28;20080;-77
2023/08/14 03:46:59;;;;;;;11.40;6.03;;;15.10;99.90;;;;;;5070296;28;20051;-77
2023/08/14 03:49:45;;;;;;;9.70;5.65;;;15.10;99.90;;;;;;5038554;28;20139;-77
2023/08/14 03:52:31;;;;;;;9.95;5.03;;;15.10;99.90;;;;;;5038992;28;20052;-78
2023/08/14 03:55:17;;;;;;;8.70;5.90;;;15.00;99.90;;;;;;5055030;28;20607;-77
2023/08/14 03:58:03;;;;;;;13.07;6.07;;;15.00;99.90;;;;;;5052238;28;20140;-77
2023/08/14 04:00:49;;;;;;;11.23;5.82;;;15.00;99.90;;;;;;5038905;28;20062;-77
2023/08/14 04:03:35;;;;;;;9.27;5.55;;;14.90;99.90;;;;;;5070457;28;20575;-76
2023/08/14 04:06:22;;;;;;;11.60;5.80;;;14.90;99.90;;;;;;5069518;28;20053;-77
2023/08/14 04:09:09;;;;;;;10.25;5.63;;;14.90;99.90;;;;;;5051458;28;20409;-77
2023/08/14 04:11:55;;;;;;;9.85;5.13;;;14.90;99.90;;;;;;5073076;28;20056;-79
2023/08/14 04:14:41;;;;;;;13.13;5.57;;;14.90;99.90;;;;;;5073057;28;20054;-76
2023/08/14 04:17:27;;;;;;;9.35;6.18;;;14.90;99.90;;;;;;5055023;28;20052;-77
2023/08/14 04:20:13;;;;;;;13.15;5.88;;;14.90;99.90;;;;;;5055774;28;20060;-77
2023/08/14 04:22:59;;;;;;;10.23;5.72;;;14.80;99.90;;;;;;5054921;28;20428;-77
2023/08/14 04:25:46;;;;;;;11.82;6.72;;;14.80;99.90;;;;;;5073790;28;20048;-77
2023/08/14 04:28:32;;;;;;;13.63;7.07;;;14.90;99.90;;;;;;5055095;28;20052;-77
2023/08/14 04:31:18;;;;;;;10.93;6.47;;;14.90;99.90;;;;;;5044871;28;20045;-77
2023/08/14 04:34:05;;;;;;;11.20;6.38;;;14.90;99.90;;;;;;5073532;28;20098;-76
2023/08/14 04:36:51;;;;;;;9.00;6.20;;;14.90;99.90;;;;;;5073855;28;20056;-78
2023/08/14 04:39:37;;;;;;;11.13;6.63;;;14.90;99.90;;;;;;5072877;28;20084;-78
2023/08/14 04:42:23;;;;;;;13.68;7.55;;;14.90;99.90;;;;;;5073338;28;20771;-76
2023/08/14 04:45:10;;;;;;;12.55;7.93;;;15.00;99.90;;;;;;5073297;28;20453;-77
2023/08/14 04:47:56;;;;;;;13.20;7.25;;;15.00;99.90;;;;;;5073008;28;20106;-77
2023/08/14 04:50:42;;;;;;;15.23;8.00;;;15.00;99.90;;;;;;5041005;28;20056;-76
2023/08/14 04:53:28;;;;;;;15.00;7.75;;;15.00;99.90;;;;;;5073167;28;20412;-77
2023/08/14 04:56:14;;;;;;;11.60;7.10;;;15.10;99.90;;;;;;5040286;28;20059;-77
2023/08/14 04:59:00;;;;;;;13.38;7.70;;;15.10;99.90;;;;;;5055280;28;20052;-78
2023/08/14 05:01:47;;;;;;;13.73;7.97;;;15.10;99.90;;;;;;5057776;28;20090;-77
2023/08/14 05:04:33;;;;;;;18.92;9.18;;;15.10;99.90;;;;;;5072593;28;20485;-77
2023/08/14 05:07:19;;;;;;;16.27;9.02;;;15.20;99.90;;;;;;5055261;28;20056;-78
2023/08/14 05:10:06;;;;;;;13.70;8.65;;;15.20;99.90;;;;;;5054185;28;20068;-76
2023/08/14 05:12:52;;;;;;;14.75;8.30;;;15.30;99.90;;;;;;5072332;28;20052;-76
2023/08/14 05:15:38;;;;;;;12.55;7.68;;;15.40;99.90;;;;;;5054490;28;20105;-77
2023/08/14 05:18:24;;;;;;;15.85;8.73;;;15.50;99.90;;;;;;5071473;28;20059;-78
2023/08/14 05:21:11;;;;;;;17.92;8.52;;;15.50;99.90;;;;;;5044065;28;20051;-76
2023/08/14 05:23:57;;;;;;;15.02;7.10;;;15.60;99.90;;;;;;5054545;28;20052;-77
2023/08/14 05:26:43;;;;;;;14.77;8.63;;;15.60;99.90;;;;;;5072228;28;20131;-77
2023/08/14 05:29:29;;;;;;;12.25;8.05;;;15.60;99.90;;;;;;5039689;28;20603;-75
2023/08/14 05:32:15;;;;;;;13.73;8.15;;;15.70;99.90;;;;;;5072038;28;20052;-74
2023/08/14 05:35:02;;;;;;;11.88;7.65;;;15.70;99.90;;;;;;5072445;28;20051;-75
2023/08/14 05:37:48;;;;;;;14.13;8.30;;;15.80;99.90;;;;;;5072269;28;20056;-75
2023/08/14 05:40:34;;;;;;;16.55;8.40;;;15.80;99.90;;;;;;5072266;28;20052;-75
2023/08/14 05:43:20;;;;;;;13.40;8.00;;;15.90;99.90;;;;;;5058346;28;20095;-75
2023/08/14 05:46:07;;;;;;;17.08;8.65;;;15.90;99.90;;;;;;5071954;28;20055;-75
2023/08/14 05:48:53;;;;;;;14.15;7.68;;;16.00;99.90;;;;;;5040784;28;20051;-77
2023/08/14 05:51:39;;;;;;;14.27;8.30;;;16.00;99.90;;;;;;5056240;28;20062;-76
2023/08/14 05:54:25;;;;;;;14.23;8.65;;;16.10;99.90;;;;;;5057318;28;20543;-76
2023/08/14 05:57:11;;;;;;;12.70;7.72;;;16.10;99.90;;;;;;5072162;28;20100;-77
2023/08/14 05:59:57;;;;;;;14.15;9.25;;;16.10;99.90;;;;;;5071055;28;20137;-77
2023/08/14 06:02:44;;;;;;;13.15;8.35;;;16.20;99.90;;;;;;5053241;28;20106;-75
2023/08/14 06:05:31;;;;;;;16.23;8.18;;;16.20;99.90;;;;;;5040969;28;20098;-77
2023/08/14 06:08:17;;;;;;;16.15;9.65;;;16.30;99.90;;;;;;5072581;28;20044;-76
2023/08/14 06:11:03;;;;;;;15.52;7.43;;;16.40;99.90;;;;;;5072221;28;20190;-75
2023/08/14 06:13:49;;;;;;;12.48;7.72;;;16.40;99.90;;;;;;5052848;28;20401;-76
2023/08/14 06:16:35;;;;;;;11.73;7.70;;;16.40;99.90;;;;;;5053787;28;20052;-78
2023/08/14 06:19:22;;;;;;;11.43;7.95;;;16.50;99.90;;;;;;5071136;28;20053;-78
2023/08/14 06:22:08;;;;;;;13.40;8.80;;;16.50;99.90;;;;;;5054006;28;20055;-76
2023/08/14 06:24:54;;;;;;;16.55;9.13;;;16.60;99.90;;;;;;5072448;28;20044;-76
2023/08/14 06:27:41;;;;;;;11.27;7.90;;;16.70;99.90;;;;;;5070913;28;20052;-76
2023/08/14 06:30:27;;;;;;;11.95;7.95;;;16.80;99.90;;;;;;5052921;28;20166;-75
2023/08/14 06:33:13;;;;;;;19.65;10.27;;;16.80;99.90;;;;;;5053815;28;20162;-77
2023/08/14 06:36:00;;;;;;;12.90;7.22;;;16.90;99.90;;;;;;5071372;28;20049;-77
2023/08/14 06:38:46;;;;;;;17.20;8.02;;;17.00;99.90;;;;;;5053710;28;20043;-75
2023/08/14 06:41:32;;;;;;;12.82;8.13;;;17.00;99.90;;;;;;5071412;28;20052;-74
2023/08/14 06:44:18;;;;;;;15.27;8.25;;;17.10;99.90;;;;;;5071942;28;20070;-74
2023/08/14 06:47:05;;;;;;;15.07;8.68;;;17.20;99.90;;;;;;5052629;28;20041;-72
2023/08/14 06:49:51;;;;;;;14.35;8.07;;;17.30;99.90;;;;;;5034116;28;20103;-73
2023/08/14 06:52:37;;;;;;;14.68;8.27;;;17.50;99.90;;;;;;5051058;28;20044;-73
2023/08/14 06:55:23;;;;;;;13.93;7.30;;;17.60;99.90;;;;;;5070005;28;20060;-73
2023/08/14 06:58:09;;;;;;;19.15;9.00;;;17.70;99.90;;;;;;5071788;28;20424;-74
2023/08/14 07:00:56;;;;;;;11.63;7.63;;;17.80;99.90;;;;;;5057053;28;20045;-74
2023/08/14 07:03:42;;;;;;;12.65;6.78;;;17.90;99.90;;;;;;5069562;28;20101;-74
2023/08/14 07:06:28;;;;;;;9.68;6.07;;;17.90;99.90;;;;;;5052430;28;20080;-74
2023/08/14 07:09:16;;;;;;;14.68;7.20;;;17.90;99.90;;;;;;5071468;28;20121;-73
2023/08/14 07:12:02;;;;;;;10.48;6.25;;;18.00;99.90;;;;;;5056343;28;20485;-74
2023/08/14 07:14:49;;;;;;;11.30;7.20;;;18.10;99.90;;;;;;5071275;28;20841;-74
2023/08/14 07:17:35;;;;;;;14.48;5.82;;;18.20;99.90;;;;;;5053064;28;20471;-74
2023/08/14 07:20:21;;;;;;;11.35;6.35;;;18.20;99.90;;;;;;5052665;28;20575;-74
2023/08/14 07:23:07;;;;;;;11.70;7.25;;;18.30;99.90;;;;;;5070352;28;20464;-74
2023/08/14 07:25:58;;;;;;;10.55;6.07;;;18.30;99.90;;;;;;5071217;28;20527;-74
2023/08/14 07:28:44;;;;;;;13.15;6.20;;;18.30;99.90;;;;;;5070463;28;20048;-74
2023/08/14 07:31:30;;;;;;;21.92;7.25;;;18.50;99.90;;;;;;5070401;28;20052;-74
2023/08/14 07:34:17;;;;;;;11.13;5.18;;;18.50;99.90;;;;;;5052900;28;20489;-73
2023/08/14 07:37:03;;;;;;;17.13;5.15;;;18.60;99.90;;;;;;5071395;28;20500;-73
2023/08/14 07:39:49;;;;;;;11.73;5.18;;;18.70;99.90;;;;;;5071188;28;20056;-74
2023/08/14 07:42:36;;;;;;;10.95;5.20;;;18.80;99.90;;;;;;5056615;28;20048;-73
2023/08/14 07:45:22;;;;;;;13.90;5.10;;;19.00;99.90;;;;;;5055033;28;20064;-74
2023/08/14 07:48:08;;;;;;;8.00;4.55;;;19.10;99.90;;;;;;5075194;28;20075;-76
2023/08/14 07:50:54;;;;;;;10.77;5.18;;;19.10;99.90;;;;;;5060780;28;20048;-71
2023/08/14 07:53:40;;;;;;;9.85;4.45;;;19.20;99.90;;;;;;5074022;28;20063;-74
2023/08/14 07:56:27;;;;;;;10.48;4.18;;;19.20;99.90;;;;;;5075010;28;20052;-73
2023/08/14 07:59:13;;;;;;;9.95;4.32;;;19.30;99.90;;;;;;5074167;28;20048;-72
2023/08/14 08:01:59;;;;;;;8.63;3.78;;;19.40;99.90;;;;;;5074866;28;20063;-74
2023/08/14 08:04:46;;;;;;;10.43;4.40;;;19.50;99.90;;;;;;5074930;28;20084;-72
2023/08/14 08:07:33;;;;;;;8.07;3.58;;;19.50;99.90;;;;;;5073604;28;20137;-73
2023/08/14 08:10:19;;;;;;;7.68;3.63;;;19.60;99.90;;;;;;5056142;28;20108;-79
2023/08/14 08:13:06;;;;;;;11.40;3.75;;;19.80;99.90;;;;;;5041745;28;20040;-74
2023/08/14 08:15:52;;;;;;;6.25;3.20;;;19.90;99.90;;;;;;5073743;28;20091;-74
2023/08/14 08:18:38;;;;;;;6.20;3.20;;;20.00;99.90;;;;;;5052354;28;20418;-73
2023/08/14 08:21:24;;;;;;;7.60;3.20;;;20.00;99.90;;;;;;5074247;28;20627;-72
2023/08/14 08:24:10;;;;;;;11.68;3.35;;;20.10;99.90;;;;;;5059688;28;20064;-72
2023/08/14 08:26:56;;;;;;;8.18;2.83;;;20.20;99.90;;;;;;5072401;28;20071;-74
2023/08/14 08:29:42;;;;;;;8.93;2.97;;;20.20;99.90;;;;;;5056356;28;20052;-72
2023/08/14 08:32:28;;;;;;;6.65;2.40;;;20.30;99.90;;;;;;5058458;28;20049;-77
2023/08/14 08:35:14;;;;;;;4.45;1.80;;;20.50;99.90;;;;;;5072405;28;20048;-77
2023/08/14 08:38:00;;;;;;;6.40;1.95;;;20.60;99.90;;;;;;5070498;28;20053;-72
2023/08/14 08:40:48;;;;;;;4.38;1.60;;;20.80;99.90;;;;;;5073371;28;20142;-74
2023/08/14 08:43:35;;;;;;;8.88;2.20;;;21.00;99.90;;;;;;5074159;28;20054;-76
2023/08/14 08:46:22;;;;;;;4.63;1.50;;;21.00;99.90;;;;;;5073268;28;20060;-73
2023/08/14 08:49:09;;;;;;;5.07;1.33;;;21.00;99.90;;;;;;5072458;28;20049;-72
2023/08/14 08:51:56;;;;;;;7.22;1.73;;;21.00;99.90;;;;;;5073037;28;20059;-72
2023/08/14 08:54:42;;;;;;;5.43;1.75;;;21.00;99.90;;;;;;5072750;28;20053;-73
2023/08/14 08:57:29;;;;;;;4.20;1.15;;;21.10;99.90;;;;;;5071292;28;20075;-74
2023/08/14 09:00:16;;;;;;;3.80;1.50;;;21.10;99.90;;;;;;5072912;28;20048;-72
2023/08/14 09:03:02;;;;;;;5.18;1.60;;;21.20;99.90;;;;;;5055437;28;20044;-71
2023/08/14 09:05:49;;;;;;;4.50;1.05;;;21.20;99.90;;;;;;5059054;28;20044;-74
2023/08/14 09:08:35;;;;;;;4.53;1.23;;;21.30;99.90;;;;;;5073257;28;20430;-72
2023/08/14 09:11:22;;;;;;;5.63;1.10;;;21.30;99.90;;;;;;5072884;28;20080;-73
2023/08/14 09:14:08;;;;;;;5.80;1.90;;;21.20;99.90;;;;;;5054949;28;20083;-73
2023/08/14 09:16:54;;;;;;;6.20;1.20;;;21.30;99.90;;;;;;5040738;28;20056;-73
2023/08/14 09:19:40;;;;;;;7.53;1.30;;;21.40;99.90;;;;;;5058283;28;20052;-71
2023/08/14 09:22:27;;;;;;;3.50;1.30;;;21.30;99.90;;;;;;5073530;28;20056;-72
2023/08/14 09:25:15;;;;;;;2.92;0.98;;;21.40;99.90;;;;;;5072022;28;20123;-73
2023/08/14 09:28:01;;;;;;;4.93;1.05;;;21.40;99.90;;;;;;5058070;28;20135;-73
2023/08/14 09:30:47;;;;;;;4.25;1.05;;;21.40;99.90;;;;;;5071745;28;20488;-74
2023/08/14 09:33:34;;;;;;;4.25;1.27;;;21.40;99.90;;;;;;5072630;28;20139;-73
2023/08/14 09:36:20;;;;;;;5.18;1.27;;;21.60;99.90;;;;;;5057019;28;20048;-73
2023/08/14 09:39:06;;;;;;;4.97;1.17;;;21.80;99.90;;;;;;5041461;28;20446;-72
2023/08/14 09:41:53;;;;;;;4.65;0.90;;;22.00;99.90;;;;;;5072386;28;20121;-72
2023/08/14 09:44:40;;;;;;;7.93;1.10;;;22.40;99.90;;;;;;5072917;28;20054;-73
2023/08/14 09:47:26;;;;;;;3.90;0.77;;;22.90;99.90;;;;;;5072810;28;20083;-73
2023/08/14 09:50:13;;;;;;;2.97;0.80;;;23.10;99.90;;;;;;5071908;28;20056;-73
2023/08/14 09:53:00;;;;;;;6.70;1.00;;;23.20;99.90;;;;;;5071229;28;20048;-73
2023/08/14 09:55:46;;;;;;;6.43;0.95;;;23.80;99.90;;;;;;5053299;28;20130;-74
2023/08/14 09:58:32;;;;;;;2.45;0.77;;;24.30;99.90;;;;;;5071128;28;20049;-73
2023/08/14 10:01:20;;;;;;;6.63;1.65;;;24.30;99.30;;;;;;5073125;28;20475;-72
2023/08/14 10:04:06;;;;;;;3.05;0.82;;;24.50;98.60;;;;;;5071081;28;20503;-76
2023/08/14 10:06:53;;;;;;;5.03;1.15;;;24.50;98.50;;;;;;5071738;28;20048;-73
2023/08/14 10:09:43;;;;;;;3.63;0.98;;;24.50;98.60;;;;;;5072389;28;20438;-74
2023/08/14 10:12:37;;;;;;;2.85;0.93;;;24.80;98.90;;;;;;5072602;28;20056;-73
2023/08/14 10:15:27;;;;;;;5.32;1.45;;;25.00;98.60;;;;;;5054573;28;20056;-71
2023/08/14 10:18:16;;;;;;;2.33;0.93;;;25.10;97.40;;;;;;5072057;28;20553;-71
2023/08/14 10:21:05;;;;;;;5.38;0.93;;;25.20;97.90;;;;;;5068768;28;20055;-71
2023/08/14 10:23:53;;;;;;;5.72;1.00;;;25.20;98.10;;;;;;5053165;28;20522;-71
2023/08/14 10:26:39;;;;;;;5.63;1.10;;;25.40;98.20;;;;;;5071546;28;20079;-71
2023/08/14 10:29:26;;;;;;;6.70;1.02;;;25.50;98.30;;;;;;5070963;28;20066;-71
2023/08/14 10:32:13;;;;;;;4.03;1.20;;;25.70;97.50;;;;;;5063534;28;20093;-72
2023/08/14 10:34:59;;;;;;;5.65;0.90;;;25.60;97.10;;;;;;5070876;28;20041;-72
2023/08/14 10:37:47;;;;;;;5.15;0.98;;;25.70;97.00;;;;;;5071481;28;20127;-70
2023/08/14 10:40:33;;;;;;;4.35;0.90;;;25.60;96.70;;;;;;5071096;28;20102;-70
2023/08/14 10:43:26;;;;;;;5.57;1.00;;;25.40;95.80;;;;;;5070852;28;20040;-69
2023/08/14 10:46:15;;;;;;;5.32;1.13;;;25.60;96.50;;;;;;5050845;28;20049;-69
2023/08/14 10:49:01;;;;;;;4.95;0.80;;;25.80;96.80;;;;;;5052018;28;20059;-71
2023/08/14 10:51:48;;;;;;;7.13;1.00;;;26.10;96.50;;;;;;5051884;28;20045;-71
2023/08/14 10:54:37;;;;;;;3.63;0.70;;;26.60;96.10;;;;;;5050333;28;20477;-71
2023/08/14 10:57:29;;;;;;;4.30;1.10;;;26.40;95.80;;;;;;5051718;28;20091;-74
2023/08/14 11:00:20;;;;;;;4.70;1.42;;;26.70;94.50;;;;;;5033068;28;20507;-73
2023/08/14 11:03:08;;;;;;;4.70;0.95;;;26.60;93.90;;;;;;5058208;28;20044;-71
2023/08/14 11:05:54;;;;;;;4.85;0.90;;;26.60;95.60;;;;;;5039630;28;20045;-77
2023/08/14 11:08:45;;;;;;;4.88;1.00;;;26.80;94.60;;;;;;5069795;28;20053;-75
2023/08/14 11:11:31;;;;;;;2.97;0.88;;;27.30;94.80;;;;;;5068291;28;20097;-74
2023/08/14 11:14:17;;;;;;;4.55;0.90;;;27.60;94.90;;;;;;5069239;28;20079;-72
2023/08/14 11:17:04;;;;;;;2.90;0.80;;;27.50;94.00;;;;;;5051176;28;20531;-73
2023/08/14 11:19:50;;;;;;;3.25;0.65;;;27.30;93.10;;;;;;5069529;28;20139;-73
2023/08/14 11:22:36;;;;;;;4.90;1.02;;;27.60;93.10;;;;;;5070312;28;20532;-73
2023/08/14 11:25:23;;;;;;;3.17;0.77;;;27.60;92.50;;;;;;5071815;28;20049;-75
2023/08/14 11:28:09;;;;;;;5.00;1.00;;;27.60;91.80;;;;;;5071240;28;20048;-75
2023/08/14 11:30:55;;;;;;;4.63;1.08;;;28.10;91.90;;;;;;5039053;28;20048;-77
2023/08/14 11:33:41;;;;;;;5.60;1.40;;;28.30;91.80;;;;;;5070683;28;20048;-77
2023/08/14 11:36:28;;;;;;;4.32;0.90;;;29.10;92.10;;;;;;5071215;28;20052;-81
2023/08/14 11:39:15;;;;;;;3.05;0.80;;;29.20;90.60;;;;;;5053020;28;20102;-75
2023/08/14 11:42:03;;;;;;;4.15;0.95;;;29.40;90.50;;;;;;5070170;28;20105;-76
2023/08/14 11:44:49;;;;;;;4.30;1.35;;;29.60;90.30;;;;;;5052204;28;20044;-76
2023/08/14 11:47:37;;;;;;;4.78;0.88;;;29.90;90.10;;;;;;5051596;28;20563;-75
2023/08/14 11:50:23;;;;;;;3.13;0.75;;;29.70;89.60;;;;;;5055734;28;20400;-75
2023/08/14 11:53:11;;;;;;;3.28;0.88;;;30.00;90.10;;;;;;5069479;28;20106;-77
2023/08/14 11:55:57;;;;;;;2.90;0.80;;;29.80;88.70;;;;;;5069552;28;20059;-77
2023/08/14 11:58:45;;;;;;;7.32;1.15;;;29.50;88.40;;;;;;5069384;28;20048;-76
2023/08/14 12:01:36;;;;;;;4.00;1.00;;;29.90;88.20;;;;;;5069413;28;20048;-76
2023/08/14 12:04:23;;;;;;;3.58;0.70;;;30.50;87.50;;;;;;5070567;28;20052;-75
2023/08/14 12:07:09;;;;;;;4.43;0.80;;;30.80;84.50;;;;;;5070138;28;20052;-76
2023/08/14 12:09:56;;;;;;;5.43;0.73;;;30.80;83.30;;;;;;5051307;28;20095;-76
2023/08/14 12:12:42;;;;;;;4.70;0.98;;;31.20;83.10;;;;;;5069589;28;20622;-75
2023/08/14 12:15:31;;;;;;;3.95;0.70;;;31.40;82.40;;;;;;5070152;28;20099;-78
2023/08/14 12:18:21;;;;;;;2.30;0.80;;;31.30;82.10;;;;;;5037947;28;20057;-75
2023/08/14 12:21:12;;;;;;;4.20;0.80;;;31.70;81.50;;;;;;5051869;28;20052;-80
2023/08/14 12:23:58;;;;;;;6.15;1.00;;;31.50;81.10;;;;;;5051864;28;20494;-76
2023/08/14 12:26:45;;;;;;;3.25;1.00;;;31.90;83.00;;;;;;5071116;28;20407;-75
2023/08/14 12:29:31;;;;;;;2.65;0.70;;;31.90;81.50;;;;;;5071085;28;20049;-74
2023/08/14 12:32:18;;;;;;;3.47;0.98;;;32.10;81.70;;;;;;5073176;28;20045;-76
2023/08/14 12:35:04;;;;;;;3.97;0.70;;;31.80;80.40;;;;;;5058954;28;20036;-75
2023/08/14 12:37:50;;;;;;;4.85;1.35;;;32.30;80.90;;;;;;5055387;28;20056;-76
2023/08/14 12:40:36;;;;;;;4.63;1.00;;;33.00;80.00;;;;;;5073504;28;20102;-74
2023/08/14 12:43:22;;;;;;;4.75;0.95;;;32.70;78.70;;;;;;5055123;28;20060;-75
2023/08/14 12:46:09;;;;;;;2.10;0.68;;;33.40;80.40;;;;;;5054713;28;20202;-78
2023/08/14 12:48:55;;;;;;;5.18;0.93;;;33.80;77.50;;;;;;5073776;28;20484;-75
2023/08/14 12:51:41;;;;;;;2.92;0.93;;;33.90;78.00;;;;;;5074044;28;20055;-73
2023/08/14 12:54:28;;;;;;;4.65;1.60;;;33.50;77.60;;;;;;5050826;28;20041;-77
2023/08/14 12:57:14;;;;;;;5.07;1.38;;;33.80;77.10;;;;;;5052536;28;20071;-80
2023/08/14 13:00:00;;;;;;;6.07;1.10;;;33.60;78.40;;;;;;5052621;28;20152;-74
2023/08/14 13:02:46;;;;;;;4.50;0.70;;;33.50;76.40;;;;;;5052593;28;20053;-74
2023/08/14 13:05:33;;;;;;;4.80;1.20;;;33.50;77.90;;;;;;5053116;28;20136;-76
2023/08/14 13:08:19;;;;;;;3.58;1.00;;;34.20;77.00;;;;;;5052683;28;20052;-78
2023/08/14 13:11:05;;;;;;;2.28;0.80;;;33.80;73.50;;;;;;5052461;28;20048;-76
2023/08/14 13:13:52;;;;;;;3.85;0.93;;;33.80;74.10;;;;;;5052209;28;20159;-78
2023/08/14 13:16:38;;;;;;;2.50;0.80;;;33.10;73.40;;;;;;5053226;28;20053;-78
2023/08/14 13:19:24;;;;;;;4.10;1.33;;;32.70;75.60;;;;;;5051242;28;20056;-82
2023/08/14 13:22:12;;;;;;;4.53;0.80;;;34.00;74.70;;;;;;5052244;28;20289;-79
2023/08/14 13:24:58;;;;;;;3.83;0.95;;;34.30;75.00;;;;;;5050504;28;20051;-77
2023/08/14 13:27:44;;;;;;;5.50;1.02;;;35.00;73.40;;;;;;5050731;28;20085;-79
2023/08/14 13:30:31;;;;;;;5.53;0.90;;;35.60;70.70;;;;;;5050511;28;20509;-77
2023/08/14 13:33:17;;;;;;;5.55;1.05;;;35.80;70.70;;;;;;5051819;28;20075;-80
2023/08/14 13:36:04;;;;;;;4.88;1.13;;;35.20;68.60;;;;;;5051303;28;20151;-79
2023/08/14 13:38:50;;;;;;;4.63;1.02;;;34.30;69.00;;;;;;5052351;28;20132;-78
2023/08/14 13:41:36;;;;;;;3.30;1.15;;;33.60;70.60;;;;;;5052191;28;20412;-82
2023/08/14 13:44:22;;;;;;;2.63;0.93;;;33.00;72.70;;;;;;5050184;28;20059;-82
2023/08/14 13:47:08;;;;;;;4.00;1.30;;;32.60;73.40;;;;;;5051028;28;20558;-81
2023/08/14 13:49:54;;;;;;;5.72;1.10;;;32.90;76.20;;;;;;5051778;28;20045;-80
2023/08/14 13:52:40;;;;;;;6.90;1.60;;;33.10;73.90;;;;;;5051486;28;20075;-76
2023/08/14 13:55:30;;;;;;;5.05;1.05;;;32.70;73.50;;;;;;5066521;28;20120;-79
2023/08/14 13:58:16;;;;;;;4.47;1.05;;;32.80;74.90;;;;;;5072545;28;20060;-79
2023/08/14 14:01:02;;;;;;;6.85;1.67;;;33.10;73.20;;;;;;5071042;28;20051;-77
2023/08/14 14:03:48;;;;;;;6.55;1.90;;;33.60;73.20;;;;;;5053815;28;20044;-77
2023/08/14 14:06:34;;;;;;;5.55;1.40;;;34.60;71.70;;;;;;5072671;28;20131;-85
2023/08/14 14:09:20;;;;;;;4.45;1.50;;;35.30;71.10;;;;;;5072424;28;20546;-85
2023/08/14 14:12:07;;;;;;;4.85;1.02;;;35.10;70.00;;;;;;5071685;28;20048;-78
2023/08/14 14:14:53;;;;;;;4.55;1.55;;;34.70;69.90;;;;;;5071652;28;20072;-77
2023/08/14 14:17:39;;;;;;;5.18;1.38;;;33.80;69.80;;;;;;5072312;28;20064;-77
2023/08/14 14:20:25;;;;;;;5.40;1.35;;;32.90;70.90;;;;;;5057436;28;20131;-79
2023/08/14 14:23:12;;;;;;;4.60;1.27;;;33.20;72.20;;;;;;5072119;28;20087;-79